Time;durP1;ratioP1;P1;durP2;ratioP2;P2;SDS_P1;SDS_P2;PMS_P1;PMS_P2;Temp;Humidity;BMP_temperature;BMP_pressure;BME280_temperature;BME280_humidity;BME280_pressure;Samples;Min_cycle;Max_cycle;Signal;HPM_P1;HPM_P2
2021/06/15 00:01:04;;;;;;;8.77;2.97;;;;;;;;;;4959700;28;20472;-81
2021/06/15 00:03:30;;;;;;;7.10;3.22;;;;;;;;;;4957965;29;20031;-80
2021/06/15 00:05:57;;;;;;;12.23;3.70;;;;;;;;;;4957924;29;20391;-81
2021/06/15 00:08:23;;;;;;;5.70;3.03;;;;;;;;;;4958041;29;20027;-83
2021/06/15 00:10:49;;;;;;;7.28;3.30;;;;;;;;;;4957803;29;20023;-83
2021/06/15 00:13:15;;;;;;;6.85;2.75;;;;;;;;;;4957740;29;20484;-82
2021/06/15 00:15:46;;;;;;;9.02;3.33;;;;;;;;;;4957740;29;20556;-79
2021/06/15 00:18:12;;;;;;;6.38;2.90;;;;;;;;;;4959424;28;20024;-80
2021/06/15 00:20:39;;;;;;;8.73;3.28;;;;;;;;;;4957676;29;20377;-83
2021/06/15 00:23:05;;;;;;;5.93;3.15;;;;;;;;;;4958191;29;20035;-80
2021/06/15 00:25:31;;;;;;;8.68;3.33;;;;;;;;;;4958320;29;20028;-84
2021/06/15 00:27:58;;;;;;;6.88;3.40;;;;;;;;;;4959059;29;20031;-83
2021/06/15 00:30:24;;;;;;;5.57;2.72;;;;;;;;;;4957657;29;20373;-81
2021/06/15 00:32:51;;;;;;;8.63;3.05;;;;;;;;;;4958770;28;20479;-83
2021/06/15 00:35:18;;;;;;;8.30;3.30;;;;;;;;;;4958634;28;20040;-81
2021/06/15 00:37:44;;;;;;;5.68;2.65;;;;;;;;;;4957589;29;20035;-82
2021/06/15 00:40:10;;;;;;;7.05;3.10;;;;;;;;;;4957383;28;20452;-82
2021/06/15 00:42:36;;;;;;;10.05;3.65;;;;;;;;;;4958910;29;20078;-82
2021/06/15 00:45:05;;;;;;;9.93;3.58;;;;;;;;;;4957441;29;20031;-83
2021/06/15 00:47:31;;;;;;;6.72;3.10;;;;;;;;;;4957121;29;20042;-81
2021/06/15 00:49:58;;;;;;;7.90;3.10;;;;;;;;;;4957611;29;20028;-82
2021/06/15 00:52:24;;;;;;;11.48;3.88;;;;;;;;;;4957345;29;20027;-79
2021/06/15 00:54:50;;;;;;;8.25;3.60;;;;;;;;;;4956984;29;20027;-81
2021/06/15 00:57:18;;;;;;;6.13;3.38;;;;;;;;;;4958637;29;20028;-82
2021/06/15 00:59:44;;;;;;;8.45;3.13;;;;;;;;;;4957146;29;20236;-82
2021/06/15 01:02:11;;;;;;;7.05;3.00;;;;;;;;;;4957056;29;20032;-81
2021/06/15 01:04:38;;;;;;;9.80;3.30;;;;;;;;;;4958089;29;20028;-82
2021/06/15 01:07:11;;;;;;;8.00;3.40;;;;;;;;;;4957070;29;20094;-79
2021/06/15 01:09:58;;;;;;;5.80;3.15;;;;;;;;;;4958299;29;20023;-82
2021/06/15 01:12:30;;;;;;;5.78;2.88;;;;;;;;;;4956838;29;20046;-79
2021/06/15 01:14:56;;;;;;;7.53;3.22;;;;;;;;;;4956580;29;20026;-79
2021/06/15 01:17:29;;;;;;;6.90;3.30;;;;;;;;;;4956665;29;20404;-80
2021/06/15 01:20:04;;;;;;;9.48;3.50;;;;;;;;;;4957050;29;20019;-81
2021/06/15 01:22:30;;;;;;;10.30;4.18;;;;;;;;;;4956615;29;20038;-82
2021/06/15 01:24:57;;;;;;;9.18;3.92;;;;;;;;;;4956457;29;20026;-82
2021/06/15 01:27:28;;;;;;;7.60;3.55;;;;;;;;;;4956525;29;20484;-79
2021/06/15 01:29:56;;;;;;;8.55;3.08;;;;;;;;;;4956841;29;20023;-83
2021/06/15 01:32:25;;;;;;;9.38;3.63;;;;;;;;;;4956595;29;20035;-81
2021/06/15 01:34:52;;;;;;;8.43;3.25;;;;;;;;;;4956558;29;20038;-80
2021/06/15 01:37:21;;;;;;;7.80;3.33;;;;;;;;;;4956450;29;20035;-84
2021/06/15 01:39:53;;;;;;;7.28;3.40;;;;;;;;;;4956402;29;20023;-82
2021/06/15 01:42:22;;;;;;;6.32;3.00;;;;;;;;;;4956204;29;20035;-79
2021/06/15 01:44:52;;;;;;;7.57;3.88;;;;;;;;;;4955697;29;20557;-80
2021/06/15 01:47:19;;;;;;;8.18;3.40;;;;;;;;;;4955993;29;20043;-78
2021/06/15 01:49:53;;;;;;;11.43;4.22;;;;;;;;;;4955740;29;20082;-79
2021/06/15 01:52:23;;;;;;;7.00;3.38;;;;;;;;;;4956956;28;20028;-80
2021/06/15 01:54:49;;;;;;;8.75;3.55;;;;;;;;;;4955690;29;20027;-81
2021/06/15 01:57:19;;;;;;;6.43;3.63;;;;;;;;;;4956905;29;20035;-79
2021/06/15 01:59:47;;;;;;;6.13;3.22;;;;;;;;;;4956928;29;20031;-80
2021/06/15 02:02:15;;;;;;;7.55;3.53;;;;;;;;;;4956620;29;20030;-80
2021/06/15 02:04:43;;;;;;;6.78;3.50;;;;;;;;;;4957284;29;20035;-81
2021/06/15 02:07:12;;;;;;;8.68;3.58;;;;;;;;;;4955385;29;20043;-78
2021/06/15 02:09:40;;;;;;;8.95;3.90;;;;;;;;;;4955571;29;20035;-80
2021/06/15 02:12:07;;;;;;;5.40;3.33;;;;;;;;;;4956678;29;20106;-80
2021/06/15 02:14:35;;;;;;;9.32;3.40;;;;;;;;;;4956665;29;20038;-79
2021/06/15 02:17:01;;;;;;;6.60;3.88;;;;;;;;;;4957117;29;20424;-79
2021/06/15 02:19:28;;;;;;;7.80;4.00;;;;;;;;;;4956678;29;20023;-80
2021/06/15 02:21:56;;;;;;;6.80;3.53;;;;;;;;;;4955229;29;20031;-80
2021/06/15 02:24:24;;;;;;;7.93;3.33;;;;;;;;;;4956375;29;20055;-80
2021/06/15 02:26:51;;;;;;;10.93;4.22;;;;;;;;;;4955277;29;20042;-80
2021/06/15 02:29:17;;;;;;;7.47;3.45;;;;;;;;;;4955096;29;20026;-80
2021/06/15 02:31:53;;;;;;;6.95;3.53;;;;;;;;;;4955003;29;20122;-80
2021/06/15 02:34:21;;;;;;;8.80;3.33;;;;;;;;;;4954959;29;20035;-80
2021/06/15 02:36:48;;;;;;;5.32;3.20;;;;;;;;;;4956443;28;20122;-80
2021/06/15 02:39:23;;;;;;;6.82;3.28;;;;;;;;;;4954913;29;20035;-80
2021/06/15 02:41:52;;;;;;;8.65;3.25;;;;;;;;;;4954920;29;20110;-81
2021/06/15 02:44:19;;;;;;;5.10;2.90;;;;;;;;;;4954901;29;20070;-80
2021/06/15 02:46:48;;;;;;;8.45;3.38;;;;;;;;;;4956470;29;20028;-80
2021/06/15 02:49:17;;;;;;;8.57;3.50;;;;;;;;;;4954848;29;20189;-78
2021/06/15 02:51:48;;;;;;;7.00;3.47;;;;;;;;;;4954638;29;20031;-79
2021/06/15 02:54:30;;;;;;;6.93;3.67;;;;;;;;;;4954714;29;20027;-80
2021/06/15 02:56:57;;;;;;;9.60;3.63;;;;;;;;;;4955907;29;20451;-79
2021/06/15 02:59:23;;;;;;;7.43;3.88;;;;;;;;;;4954666;29;20384;-80
2021/06/15 03:01:50;;;;;;;8.13;3.60;;;;;;;;;;4954731;29;20038;-81
2021/06/15 03:04:16;;;;;;;5.97;3.28;;;;;;;;;;4954723;28;20024;-80
2021/06/15 03:06:43;;;;;;;8.07;3.63;;;;;;;;;;4955866;29;20174;-80
2021/06/15 03:09:10;;;;;;;6.72;3.65;;;;;;;;;;4955589;29;20027;-79
2021/06/15 03:11:38;;;;;;;9.25;3.67;;;;;;;;;;4954414;29;20023;-79
2021/06/15 03:14:11;;;;;;;8.63;3.63;;;;;;;;;;4954544;29;20034;-81
2021/06/15 03:16:37;;;;;;;10.50;3.80;;;;;;;;;;4955234;29;20035;-80
2021/06/15 03:19:08;;;;;;;7.13;3.67;;;;;;;;;;4954948;29;20035;-81
2021/06/15 03:21:37;;;;;;;6.57;3.78;;;;;;;;;;4955889;29;20453;-81
2021/06/15 03:24:06;;;;;;;9.18;4.13;;;;;;;;;;4955204;29;20034;-81
2021/06/15 03:26:40;;;;;;;6.85;3.60;;;;;;;;;;4956068;29;20035;-80
2021/06/15 03:29:06;;;;;;;;;;;;;;;;;;4956596;29;20074;-81
2021/06/15 03:31:38;;;;;;;7.07;3.88;;;;;;;;;;4956013;29;19911;-82
2021/06/15 03:34:04;;;;;;;5.97;3.38;;;;;;;;;;4955071;29;20075;-80
2021/06/15 03:36:31;;;;;;;7.30;3.25;;;;;;;;;;4954502;29;20055;-81
2021/06/15 03:38:59;;;;;;;7.93;4.05;;;;;;;;;;4955984;29;20531;-80
2021/06/15 03:41:25;;;;;;;9.18;3.90;;;;;;;;;;4956361;28;20086;-81
2021/06/15 03:43:57;;;;;;;5.57;2.90;;;;;;;;;;4956777;29;20023;-81
2021/06/15 03:46:24;;;;;;;8.48;3.42;;;;;;;;;;4954654;29;20036;-80
2021/06/15 03:48:51;;;;;;;9.43;3.20;;;;;;;;;;4955527;29;20042;-80
2021/06/15 03:51:38;;;;;;;6.90;3.17;;;;;;;;;;4955645;29;20106;-84
2021/06/15 03:54:10;;;;;;;6.70;3.22;;;;;;;;;;4955381;29;20057;-80
2021/06/15 03:56:41;;;;;;;6.70;3.30;;;;;;;;;;4955080;29;20408;-84
2021/06/15 03:59:08;;;;;;;6.95;3.55;;;;;;;;;;4954921;29;20023;-79
2021/06/15 04:01:35;;;;;;;5.63;3.08;;;;;;;;;;4954291;29;20039;-81
2021/06/15 04:04:04;;;;;;;6.93;3.65;;;;;;;;;;4954339;29;20472;-79
2021/06/15 04:06:30;;;;;;;8.25;3.13;;;;;;;;;;4954644;29;20039;-82
2021/06/15 04:09:02;;;;;;;6.10;3.17;;;;;;;;;;4954209;29;20032;-82
2021/06/15 04:11:28;;;;;;;3.90;2.50;;;;;;;;;;4955541;28;20031;-82
2021/06/15 04:13:55;;;;;;;9.07;2.75;;;;;;;;;;4955387;28;20509;-81
2021/06/15 04:16:21;;;;;;;3.42;2.17;;;;;;;;;;4959001;29;20023;-83
2021/06/15 04:18:48;;;;;;;7.55;2.50;;;;;;;;;;4957786;29;20032;-82
2021/06/15 04:21:17;;;;;;;9.85;2.75;;;;;;;;;;4957556;29;20480;-83
2021/06/15 04:23:54;;;;;;;5.45;2.20;;;;;;;;;;4957874;29;20053;-79
2021/06/15 04:26:20;;;;;;;5.43;2.10;;;;;;;;;;4957512;29;20035;-82
2021/06/15 04:28:46;;;;;;;7.05;2.30;;;;;;;;;;4958144;29;20027;-79
2021/06/15 04:31:14;;;;;;;7.97;2.13;;;;;;;;;;4957343;29;20494;-84
2021/06/15 04:33:41;;;;;;;4.82;2.33;;;;;;;;;;4957335;29;20170;-83
2021/06/15 04:36:08;;;;;;;3.22;1.88;;;;;;;;;;4958341;29;20047;-84
2021/06/15 04:38:45;;;;;;;4.10;1.60;;;;;;;;;;4957275;29;20027;-79
2021/06/15 04:41:16;;;;;;;4.32;1.98;;;;;;;;;;4958292;29;20027;-80
2021/06/15 04:44:01;;;;;;;3.92;2.00;;;;;;;;;;4958050;29;20054;-80
2021/06/15 04:46:37;;;;;;;4.50;2.35;;;;;;;;;;4956677;29;20484;-80
2021/06/15 04:49:12;;;;;;;7.05;2.40;;;;;;;;;;4956680;29;20054;-80
2021/06/15 04:51:38;;;;;;;5.47;1.75;;;;;;;;;;4956672;29;20100;-80
2021/06/15 04:54:05;;;;;;;3.92;2.28;;;;;;;;;;4956573;29;20031;-82
2021/06/15 04:56:31;;;;;;;4.40;2.20;;;;;;;;;;4958362;29;20039;-82
2021/06/15 04:58:59;;;;;;;5.75;2.10;;;;;;;;;;4957778;29;20032;-82
2021/06/15 05:01:26;;;;;;;5.65;2.00;;;;;;;;;;4956495;29;20183;-81
2021/06/15 05:03:54;;;;;;;3.83;1.95;;;;;;;;;;4957780;29;20034;-81
2021/06/15 05:06:20;;;;;;;3.33;1.88;;;;;;;;;;4957575;29;20121;-79
2021/06/15 05:08:48;;;;;;;9.65;2.55;;;;;;;;;;4952741;29;20388;-82
2021/06/15 05:11:16;;;;;;;3.95;2.20;;;;;;;;;;4949982;29;20481;-82
2021/06/15 05:13:44;;;;;;;6.20;2.15;;;;;;;;;;4952412;29;20528;-79
2021/06/15 05:16:10;;;;;;;3.92;1.92;;;;;;;;;;4953287;29;20039;-82
2021/06/15 05:18:37;;;;;;;6.70;2.53;;;;;;;;;;4947518;28;20042;-79
2021/06/15 05:21:11;;;;;;;7.35;2.10;;;;;;;;;;4936397;29;20385;-85
2021/06/15 05:23:41;;;;;;;4.57;2.25;;;;;;;;;;4936847;29;20028;-82
2021/06/15 05:26:07;;;;;;;5.13;1.85;;;;;;;;;;4934848;29;20118;-83
2021/06/15 05:28:33;;;;;;;4.20;2.20;;;;;;;;;;4936111;29;20043;-85
2021/06/15 05:30:59;;;;;;;5.97;2.40;;;;;;;;;;4951658;29;20027;-86
2021/06/15 05:33:25;;;;;;;7.60;2.17;;;;;;;;;;4955792;29;20042;-83
2021/06/15 05:35:52;;;;;;;3.97;1.83;;;;;;;;;;4955673;29;20047;-84
2021/06/15 05:38:18;;;;;;;3.60;1.70;;;;;;;;;;4956004;29;20093;-80
2021/06/15 05:40:45;;;;;;;5.43;2.00;;;;;;;;;;4955885;29;20123;-85
2021/06/15 05:43:11;;;;;;;4.10;1.90;;;;;;;;;;4957155;28;20050;-83
2021/06/15 05:45:37;;;;;;;5.45;1.92;;;;;;;;;;4957310;28;20023;-78
2021/06/15 05:48:04;;;;;;;3.63;1.90;;;;;;;;;;4957378;29;20507;-79
2021/06/15 05:50:31;;;;;;;5.50;1.85;;;;;;;;;;4957721;29;20051;-79
2021/06/15 05:52:57;;;;;;;7.88;2.30;;;;;;;;;;4957738;29;20034;-79
2021/06/15 05:55:23;;;;;;;4.00;1.90;;;;;;;;;;4958501;29;20484;-78
2021/06/15 05:57:50;;;;;;;3.53;1.77;;;;;;;;;;4957147;28;20071;-83
2021/06/15 06:00:17;;;;;;;8.65;1.95;;;;;;;;;;4955322;29;20027;-82
2021/06/15 06:02:43;;;;;;;4.78;1.88;;;;;;;;;;4955366;29;20031;-79
2021/06/15 06:10:23;;;;;;;4.97;1.60;;;;;;;;;;4956358;29;20503;-82
2021/06/15 06:12:50;;;;;;;6.30;2.08;;;;;;;;;;4954914;29;20030;-83
2021/06/15 06:15:16;;;;;;;4.93;2.00;;;;;;;;;;4955034;29;20033;-81
2021/06/15 06:17:43;;;;;;;4.63;1.70;;;;;;;;;;4956233;28;20019;-81
2021/06/15 06:20:09;;;;;;;3.83;1.67;;;;;;;;;;4954812;29;20031;-82
2021/06/15 06:22:39;;;;;;;3.47;1.80;;;;;;;;;;4954825;29;20027;-79
2021/06/15 06:25:06;;;;;;;5.78;1.77;;;;;;;;;;4954717;29;20034;-79
2021/06/15 06:27:32;;;;;;;9.50;2.20;;;;;;;;;;4954636;29;20118;-82
2021/06/15 06:29:58;;;;;;;4.60;1.80;;;;;;;;;;4954637;29;20120;-82
2021/06/15 06:32:24;;;;;;;5.50;1.90;;;;;;;;;;4956048;29;20123;-82
2021/06/15 06:34:51;;;;;;;6.03;2.13;;;;;;;;;;4955703;29;20035;-81
2021/06/15 06:37:17;;;;;;;4.97;1.67;;;;;;;;;;4957412;28;20035;-82
2021/06/15 06:39:43;;;;;;;5.45;2.00;;;;;;;;;;4955202;29;20114;-80
2021/06/15 06:42:09;;;;;;;4.75;1.60;;;;;;;;;;4954604;29;20031;-81
2021/06/15 06:44:36;;;;;;;6.13;1.85;;;;;;;;;;4954548;29;20064;-82
2021/06/15 06:47:02;;;;;;;4.95;1.90;;;;;;;;;;4954272;29;20408;-79
2021/06/15 06:49:28;;;;;;;3.90;2.00;;;;;;;;;;4955732;29;20023;-81
2021/06/15 06:51:54;;;;;;;3.58;1.73;;;;;;;;;;4954383;29;20031;-78
2021/06/15 06:54:20;;;;;;;4.30;1.67;;;;;;;;;;4955692;29;20103;-81
2021/06/15 06:56:46;;;;;;;5.65;2.10;;;;;;;;;;4954303;29;20087;-81
2021/06/15 06:59:12;;;;;;;5.03;1.98;;;;;;;;;;4954241;29;20087;-79
2021/06/15 07:01:38;;;;;;;4.72;1.67;;;;;;;;;;4954288;29;20535;-81
2021/06/15 07:04:04;;;;;;;3.67;1.60;;;;;;;;;;4954113;29;20035;-79
2021/06/15 07:06:30;;;;;;;5.28;2.00;;;;;;;;;;4954033;29;20078;-78
2021/06/15 07:08:56;;;;;;;5.15;2.60;;;;;;;;;;4954218;29;20110;-80
2021/06/15 07:11:23;;;;;;;4.28;1.65;;;;;;;;;;4954086;29;20031;-78
2021/06/15 07:13:49;;;;;;;5.13;1.80;;;;;;;;;;4952960;29;20098;-81
2021/06/15 07:16:15;;;;;;;6.65;1.70;;;;;;;;;;4954224;28;20544;-79
2021/06/15 07:18:42;;;;;;;4.47;1.92;;;;;;;;;;4954559;28;20035;-81
2021/06/15 07:21:08;;;;;;;3.22;1.63;;;;;;;;;;4954179;28;20027;-79
2021/06/15 07:23:34;;;;;;;7.18;1.90;;;;;;;;;;4953042;29;20034;-79
2021/06/15 07:26:01;;;;;;;5.47;1.98;;;;;;;;;;4954678;28;20090;-80
2021/06/15 07:28:27;;;;;;;3.97;1.80;;;;;;;;;;4953849;29;20035;-80
2021/06/15 07:30:53;;;;;;;4.53;2.20;;;;;;;;;;4953795;29;20054;-81
2021/06/15 07:33:19;;;;;;;7.32;2.00;;;;;;;;;;4953868;29;20105;-83
2021/06/15 07:35:45;;;;;;;7.63;1.60;;;;;;;;;;4953614;29;20051;-79
2021/06/15 07:38:11;;;;;;;3.78;1.80;;;;;;;;;;4953877;29;20020;-79
2021/06/15 07:40:37;;;;;;;3.95;2.00;;;;;;;;;;4953822;29;20369;-80
2021/06/15 07:43:04;;;;;;;3.22;1.77;;;;;;;;;;4937660;29;20040;-81
2021/06/15 07:45:31;;;;;;;5.82;1.88;;;;;;;;;;4934660;29;20024;-80
2021/06/15 07:47:57;;;;;;;4.18;1.80;;;;;;;;;;4934510;29;20050;-79
2021/06/15 07:50:23;;;;;;;3.65;1.95;;;;;;;;;;4938086;29;20047;-80
2021/06/15 07:52:50;;;;;;;3.95;2.00;;;;;;;;;;4939569;29;20032;-81
2021/06/15 07:55:17;;;;;;;6.28;2.00;;;;;;;;;;4938363;29;20075;-79
2021/06/15 07:57:44;;;;;;;3.10;1.70;;;;;;;;;;4938341;29;20501;-79
2021/06/15 08:00:10;;;;;;;3.28;1.65;;;;;;;;;;4939515;29;20024;-80
2021/06/15 08:02:37;;;;;;;5.57;2.00;;;;;;;;;;4938272;29;20043;-80
2021/06/15 08:05:03;;;;;;;3.50;1.92;;;;;;;;;;4938260;29;20509;-78
2021/06/15 08:07:30;;;;;;;3.45;1.67;;;;;;;;;;4952507;29;20031;-79
2021/06/15 08:09:56;;;;;;;5.57;2.05;;;;;;;;;;4937884;29;20138;-80
2021/06/15 08:12:23;;;;;;;5.07;1.95;;;;;;;;;;4938080;29;20064;-79
2021/06/15 08:14:49;;;;;;;5.63;2.15;;;;;;;;;;4937973;29;20043;-80
2021/06/15 08:17:15;;;;;;;4.85;2.22;;;;;;;;;;4937972;29;20028;-79
2021/06/15 08:19:41;;;;;;;5.43;2.10;;;;;;;;;;4939187;29;20038;-80
2021/06/15 08:22:08;;;;;;;4.47;1.88;;;;;;;;;;4939174;29;20055;-79
2021/06/15 08:24:34;;;;;;;4.90;2.10;;;;;;;;;;4937884;29;20480;-80
2021/06/15 08:27:00;;;;;;;3.83;1.70;;;;;;;;;;4937688;29;20040;-79
2021/06/15 08:29:26;;;;;;;3.85;1.80;;;;;;;;;;4937785;29;20552;-80
2021/06/15 08:31:52;;;;;;;6.50;2.00;;;;;;;;;;4937745;29;20023;-80
2021/06/15 08:34:19;;;;;;;4.53;2.03;;;;;;;;;;4937668;29;20059;-80
2021/06/15 08:36:45;;;;;;;7.28;2.03;;;;;;;;;;4938768;29;20081;-80
2021/06/15 08:39:12;;;;;;;3.80;1.50;;;;;;;;;;4937539;29;20023;-79
2021/06/15 08:41:39;;;;;;;8.02;2.10;;;;;;;;;;4937477;29;20103;-81
2021/06/15 08:44:06;;;;;;;5.70;2.00;;;;;;;;;;4937528;29;20023;-81
2021/06/15 08:46:33;;;;;;;4.75;1.60;;;;;;;;;;4937375;29;20393;-82
2021/06/15 08:49:00;;;;;;;5.43;1.38;;;;;;;;;;4937073;29;20054;-81
2021/06/15 08:51:27;;;;;;;3.97;1.50;;;;;;;;;;4946805;29;20031;-81
2021/06/15 08:53:53;;;;;;;8.60;1.52;;;;;;;;;;4956448;29;20042;-80
2021/06/15 08:56:26;;;;;;;5.20;1.80;;;;;;;;;;4956424;29;20023;-80
2021/06/15 08:58:53;;;;;;;5.85;1.67;;;;;;;;;;4956303;29;20555;-81
2021/06/15 09:01:19;;;;;;;3.20;1.60;;;;;;;;;;4956222;28;20106;-80
2021/06/15 09:03:45;;;;;;;6.85;1.95;;;;;;;;;;4956364;29;20033;-80
2021/06/15 09:06:11;;;;;;;3.53;1.60;;;;;;;;;;4956081;29;20468;-82
2021/06/15 09:08:53;;;;;;;5.65;2.00;;;;;;;;;;4953222;28;20040;-82
2021/06/15 09:11:19;;;;;;;3.47;1.42;;;;;;;;;;4940587;29;20039;-82
2021/06/15 09:13:47;;;;;;;3.78;1.52;;;;;;;;;;4938705;29;20028;-84
2021/06/15 09:16:38;;;;;;;3.72;1.58;;;;;;;;;;4938772;29;20016;-80
2021/06/15 09:19:17;;;;;;;8.02;1.50;;;;;;;;;;4936948;29;20111;-81
2021/06/15 09:21:45;;;;;;;6.45;1.80;;;;;;;;;;4936848;29;20437;-81
2021/06/15 09:24:11;;;;;;;3.05;1.58;;;;;;;;;;4937089;29;20159;-80
2021/06/15 09:26:56;;;;;;;3.20;1.65;;;;;;;;;;4936971;29;20040;-79
2021/06/15 09:29:40;;;;;;;5.13;2.20;;;;;;;;;;4938472;29;20024;-80
2021/06/15 09:32:07;;;;;;;4.90;1.40;;;;;;;;;;4938242;29;20028;-80
2021/06/15 09:34:34;;;;;;;3.97;1.50;;;;;;;;;;4937984;29;20047;-81
2021/06/15 09:37:03;;;;;;;3.70;1.40;;;;;;;;;;4937589;29;20052;-81
2021/06/15 09:39:30;;;;;;;3.42;1.50;;;;;;;;;;4937754;29;20071;-81
2021/06/15 09:41:56;;;;;;;3.85;1.55;;;;;;;;;;4936529;29;20039;-81
2021/06/15 09:44:26;;;;;;;4.57;1.73;;;;;;;;;;4936437;29;20396;-81
2021/06/15 09:46:53;;;;;;;2.78;1.30;;;;;;;;;;4937706;29;20119;-81
2021/06/15 09:49:38;;;;;;;3.28;1.38;;;;;;;;;;4937672;29;20039;-81
2021/06/15 09:52:17;;;;;;;3.20;1.50;;;;;;;;;;4937563;29;20492;-81
2021/06/15 09:54:43;;;;;;;3.03;1.52;;;;;;;;;;4946387;29;20452;-81
2021/06/15 09:57:10;;;;;;;3.13;1.52;;;;;;;;;;4955264;29;20038;-81
2021/06/15 09:59:51;;;;;;;3.92;1.73;;;;;;;;;;4955373;29;20027;-81
2021/06/15 10:02:19;;;;;;;5.63;1.77;;;;;;;;;;4955449;29;20023;-82
2021/06/15 10:04:48;;;;;;;3.92;1.73;;;;;;;;;;4955262;29;20031;-80
2021/06/15 10:07:24;;;;;;;4.53;1.88;;;;;;;;;;4956209;28;20035;-80
2021/06/15 10:09:50;;;;;;;3.67;1.55;;;;;;;;;;4956435;28;20019;-80
2021/06/15 10:12:16;;;;;;;3.80;1.80;;;;;;;;;;4955790;28;20027;-80
2021/06/15 10:14:42;;;;;;;6.28;1.73;;;;;;;;;;4956047;28;20027;-79
2021/06/15 10:17:09;;;;;;;3.10;1.70;;;;;;;;;;4954321;29;20065;-80
2021/06/15 10:19:35;;;;;;;4.45;2.08;;;;;;;;;;4954147;29;20023;-79
2021/06/15 10:22:01;;;;;;;5.22;2.13;;;;;;;;;;4954476;29;20050;-80
2021/06/15 10:24:27;;;;;;;7.45;2.30;;;;;;;;;;4954818;29;20034;-79
2021/06/15 10:26:54;;;;;;;7.22;1.75;;;;;;;;;;4954673;29;20039;-79
2021/06/15 10:29:21;;;;;;;5.00;1.98;;;;;;;;;;4954776;29;20027;-78
2021/06/15 10:31:49;;;;;;;3.40;1.63;;;;;;;;;;4954762;29;20031;-80
2021/06/15 10:34:35;;;;;;;3.00;1.42;;;;;;;;;;4955010;29;20362;-79
2021/06/15 10:37:01;;;;;;;5.93;1.63;;;;;;;;;;4954508;29;20075;-80
2021/06/15 10:39:38;;;;;;;4.30;2.00;;;;;;;;;;4954570;29;20028;-79
2021/06/15 10:42:14;;;;;;;4.78;2.28;;;;;;;;;;4956612;28;20388;-79
2021/06/15 10:44:41;;;;;;;3.67;2.00;;;;;;;;;;4955967;28;20023;-80
2021/06/15 10:47:13;;;;;;;5.70;2.10;;;;;;;;;;4954445;29;20416;-79
2021/06/15 10:49:59;;;;;;;3.72;1.90;;;;;;;;;;4956068;28;20015;-80
2021/06/15 10:52:25;;;;;;;4.22;2.05;;;;;;;;;;4954713;29;20035;-81
2021/06/15 10:54:52;;;;;;;4.22;2.33;;;;;;;;;;4954260;29;20023;-80
2021/06/15 10:57:19;;;;;;;4.53;2.05;;;;;;;;;;4954399;29;20050;-81
2021/06/15 11:00:04;;;;;;;5.50;2.10;;;;;;;;;;4954195;29;20428;-80
2021/06/15 11:02:33;;;;;;;3.70;2.17;;;;;;;;;;4954252;29;20178;-79
2021/06/15 11:05:19;;;;;;;6.07;2.05;;;;;;;;;;4955272;28;20023;-80
2021/06/15 11:07:45;;;;;;;5.88;1.98;;;;;;;;;;4955299;28;20507;-79
2021/06/15 11:10:12;;;;;;;3.40;1.83;;;;;;;;;;4955345;29;20055;-81
2021/06/15 11:12:48;;;;;;;6.97;2.08;;;;;;;;;;4954124;29;20035;-80
2021/06/15 11:15:14;;;;;;;4.30;2.13;;;;;;;;;;4955282;29;20027;-81
2021/06/15 11:17:53;;;;;;;3.33;2.00;;;;;;;;;;4955202;29;20035;-80
2021/06/15 11:20:28;;;;;;;4.00;1.70;;;;;;;;;;4953939;29;20050;-80
2021/06/15 11:23:10;;;;;;;4.32;1.98;;;;;;;;;;4953802;28;20086;-80
2021/06/15 11:25:46;;;;;;;5.53;2.03;;;;;;;;;;4952187;29;20045;-79
2021/06/15 11:28:30;;;;;;;5.47;1.88;;;;;;;;;;4952254;29;20034;-81
2021/06/15 11:31:15;;;;;;;4.68;1.80;;;;;;;;;;4952802;29;20042;-87
2021/06/15 11:34:00;;;;;;;6.80;2.13;;;;;;;;;;4953916;29;20039;-81
2021/06/15 11:36:36;;;;;;;2.95;1.60;;;;;;;;;;4952965;29;20051;-80
2021/06/15 11:39:21;;;;;;;6.32;2.33;;;;;;;;;;4954057;29;20023;-80
2021/06/15 11:42:06;;;;;;;10.45;2.28;;;;;;;;;;4950988;29;20464;-80
2021/06/15 11:44:56;;;;;;;2.85;1.58;;;;;;;;;;4951624;29;20028;-81
2021/06/15 11:47:30;;;;;;;8.35;2.00;;;;;;;;;;4955888;28;20504;-80
2021/06/15 11:50:40;;;;;;;4.30;1.80;;;;;;;;;;5146313;23;20011;-79
2021/06/15 11:53:36;;;;;;;7.18;1.83;;;;;;;;;;4859435;29;20041;-78
2021/06/15 11:56:03;;;;;;;8.23;2.10;;;;;;;;;;4837241;29;20148;-78
2021/06/15 11:58:30;;;;;;;6.93;1.92;;;;;;;;;;4900436;29;20512;-78
2021/06/15 12:00:56;;;;;;;3.25;1.70;;;;;;;;;;4900026;29;20039;-78
2021/06/15 12:03:42;;;;;;;7.63;1.77;;;;;;;;;;4899826;29;20063;-79
2021/06/15 12:06:09;;;;;;;3.10;1.73;;;;;;;;;;4901644;29;20028;-79
2021/06/15 12:08:36;;;;;;;5.10;2.08;;;;;;;;;;4916945;29;20032;-79
2021/06/15 12:11:06;;;;;;;6.68;2.33;;;;;;;;;;4919136;29;20032;-78
2021/06/15 12:13:32;;;;;;;7.03;2.13;;;;;;;;;;4917286;29;20047;-79
2021/06/15 12:16:03;;;;;;;3.72;1.85;;;;;;;;;;4916712;29;20025;-81
2021/06/15 12:18:29;;;;;;;5.68;1.85;;;;;;;;;;4915440;29;20032;-79
2021/06/15 12:20:57;;;;;;;5.13;2.10;;;;;;;;;;4915304;29;20466;-80
2021/06/15 12:23:24;;;;;;;4.55;2.13;;;;;;;;;;4916753;29;20031;-80
2021/06/15 12:25:51;;;;;;;3.13;1.80;;;;;;;;;;4916564;29;20054;-80
2021/06/15 12:28:21;;;;;;;3.70;2.00;;;;;;;;;;4913271;29;20043;-80
2021/06/15 12:31:01;;;;;;;8.32;2.10;;;;;;;;;;4916697;29;20032;-79
2021/06/15 12:33:27;;;;;;;5.65;2.22;;;;;;;;;;4899673;29;20031;-79
2021/06/15 12:36:04;;;;;;;20.33;2.25;;;;;;;;;;4900802;29;20033;-76
2021/06/15 12:38:30;;;;;;;6.53;2.10;;;;;;;;;;4919977;29;20568;-78
2021/06/15 12:40:57;;;;;;;4.88;1.92;;;;;;;;;;4919709;29;20028;-79
2021/06/15 12:43:24;;;;;;;5.63;2.05;;;;;;;;;;4902828;29;20028;-80
2021/06/15 12:46:03;;;;;;;7.30;2.33;;;;;;;;;;4902814;29;20036;-78
2021/06/15 12:48:29;;;;;;;3.78;2.00;;;;;;;;;;4919915;29;20043;-79
2021/06/15 12:51:05;;;;;;;4.70;1.95;;;;;;;;;;4919458;29;20051;-79
2021/06/15 12:53:34;;;;;;;6.03;2.05;;;;;;;;;;4919936;29;20031;-79
2021/06/15 12:56:00;;;;;;;2.95;2.03;;;;;;;;;;4902672;29;20024;-80
2021/06/15 12:58:28;;;;;;;4.55;1.80;;;;;;;;;;4902929;29;20040;-80
2021/06/15 13:00:55;;;;;;;6.10;2.40;;;;;;;;;;4902489;29;20088;-79
2021/06/15 13:03:21;;;;;;;4.97;1.90;;;;;;;;;;4902516;29;20405;-79
2021/06/15 13:05:47;;;;;;;7.28;2.50;;;;;;;;;;4903793;29;20031;-79
2021/06/15 13:08:13;;;;;;;5.53;2.10;;;;;;;;;;4938375;29;20469;-80
2021/06/15 13:10:39;;;;;;;4.60;2.10;;;;;;;;;;4921349;29;20074;-79
2021/06/15 13:13:13;;;;;;;4.57;2.40;;;;;;;;;;4938228;29;20396;-80
2021/06/15 13:15:39;;;;;;;3.97;2.20;;;;;;;;;;4938837;29;20024;-79
2021/06/15 13:18:10;;;;;;;3.97;2.20;;;;;;;;;;4938192;29;20393;-80
2021/06/15 13:20:37;;;;;;;5.10;1.90;;;;;;;;;;4938445;29;20030;-79
2021/06/15 13:23:16;;;;;;;4.32;2.13;;;;;;;;;;4938084;29;20028;-79
2021/06/15 13:25:42;;;;;;;4.97;2.35;;;;;;;;;;4921018;29;20492;-79
2021/06/15 13:28:11;;;;;;;3.92;1.92;;;;;;;;;;4920946;29;20043;-79
2021/06/15 13:30:39;;;;;;;6.90;2.33;;;;;;;;;;4920924;29;20032;-80
2021/06/15 13:33:14;;;;;;;9.10;2.10;;;;;;;;;;4937850;29;20028;-79
2021/06/15 13:35:42;;;;;;;6.43;2.25;;;;;;;;;;4938264;29;20024;-79
2021/06/15 13:38:09;;;;;;;5.40;2.00;;;;;;;;;;4920717;29;20035;-79
2021/06/15 13:40:35;;;;;;;5.07;2.15;;;;;;;;;;4920807;29;20111;-78
2021/06/15 13:43:03;;;;;;;11.20;2.30;;;;;;;;;;4937723;29;20035;-79
2021/06/15 13:45:31;;;;;;;6.43;1.85;;;;;;;;;;4937762;29;20035;-79
2021/06/15 13:47:57;;;;;;;8.45;1.95;;;;;;;;;;4919667;29;20467;-79
2021/06/15 13:50:23;;;;;;;6.20;2.30;;;;;;;;;;4916549;29;20075;-80
2021/06/15 13:52:50;;;;;;;5.10;2.38;;;;;;;;;;4918684;29;20481;-79
2021/06/15 13:55:16;;;;;;;4.65;2.20;;;;;;;;;;4901575;29;20429;-80
2021/06/15 13:57:43;;;;;;;4.28;2.08;;;;;;;;;;4899002;29;20396;-79
2021/06/15 14:00:11;;;;;;;6.18;2.40;;;;;;;;;;4882597;29;20031;-80
2021/06/15 14:02:37;;;;;;;7.13;2.65;;;;;;;;;;4882858;29;20438;-79
2021/06/15 14:05:04;;;;;;;5.15;2.25;;;;;;;;;;4904874;29;20055;-79
2021/06/15 14:07:30;;;;;;;6.72;2.78;;;;;;;;;;4918205;29;20111;-79
2021/06/15 14:09:56;;;;;;;5.72;2.42;;;;;;;;;;4900983;29;20032;-80
2021/06/15 14:12:22;;;;;;;5.20;2.10;;;;;;;;;;4918502;29;20028;-79
2021/06/15 14:14:49;;;;;;;4.93;2.00;;;;;;;;;;4901485;29;20036;-81
2021/06/15 14:17:15;;;;;;;4.53;2.15;;;;;;;;;;4918262;29;20024;-80
2021/06/15 14:19:41;;;;;;;6.40;2.40;;;;;;;;;;4901196;29;20039;-80
2021/06/15 14:22:07;;;;;;;6.22;2.25;;;;;;;;;;4918730;29;20024;-80
2021/06/15 14:24:33;;;;;;;4.32;2.65;;;;;;;;;;4901148;29;20032;-79
2021/06/15 14:27:02;;;;;;;3.60;1.92;;;;;;;;;;4918264;29;20525;-81
2021/06/15 14:29:29;;;;;;;4.82;2.00;;;;;;;;;;4901030;29;20122;-79
2021/06/15 14:31:56;;;;;;;4.10;2.10;;;;;;;;;;4918007;29;20024;-79
2021/06/15 14:34:23;;;;;;;4.95;2.17;;;;;;;;;;4917978;29;20486;-78
2021/06/15 14:36:49;;;;;;;5.57;2.63;;;;;;;;;;4900926;29;20028;-79
2021/06/15 14:39:15;;;;;;;5.03;2.20;;;;;;;;;;4917861;29;20036;-78
2021/06/15 14:41:41;;;;;;;3.78;2.13;;;;;;;;;;4918367;29;20072;-78
2021/06/15 14:44:07;;;;;;;4.72;2.22;;;;;;;;;;4918258;29;20378;-77
2021/06/15 14:46:36;;;;;;;3.92;1.70;;;;;;;;;;4917716;29;20028;-79
2021/06/15 14:49:02;;;;;;;6.80;2.17;;;;;;;;;;4900714;29;20042;-78
2021/06/15 14:51:28;;;;;;;4.45;2.20;;;;;;;;;;4900550;29;20490;-77
2021/06/15 14:53:54;;;;;;;5.68;2.17;;;;;;;;;;4900761;29;20519;-78
2021/06/15 14:56:22;;;;;;;3.30;1.88;;;;;;;;;;4918113;29;20112;-79
2021/06/15 14:58:51;;;;;;;5.57;2.30;;;;;;;;;;4917421;29;20056;-79